sensor_id;sensor_type;location;lat;lon;timestamp;P1;durP1;ratioP1;P2;durP2;ratioP2
49934;SDS011;39898;41.762;26.200;2022-11-20T00:01:21;25.65;;;4.53;;
49934;SDS011;39898;41.762;26.200;2022-11-20T00:03:50;23.42;;;4.85;;
49934;SDS011;39898;41.762;26.200;2022-11-20T00:06:19;30.27;;;6.07;;
49934;SDS011;39898;41.762;26.200;2022-11-20T00:08:46;36.30;;;6.18;;
49934;SDS011;39898;41.762;26.200;2022-11-20T00:11:15;25.60;;;5.20;;
49934;SDS011;39898;41.762;26.200;2022-11-20T00:13:44;32.47;;;5.97;;
49934;SDS011;39898;41.762;26.200;2022-11-20T00:16:14;28.38;;;5.05;;
49934;SDS011;39898;41.762;26.200;2022-11-20T00:18:43;27.35;;;4.35;;
49934;SDS011;39898;41.762;26.200;2022-11-20T00:21:11;35.25;;;5.85;;
49934;SDS011;39898;41.762;26.200;2022-11-20T00:23:40;25.95;;;6.50;;
49934;SDS011;39898;41.762;26.200;2022-11-20T00:26:08;36.05;;;6.35;;
49934;SDS011;39898;41.762;26.200;2022-11-20T00:28:36;23.75;;;4.78;;
49934;SDS011;39898;41.762;26.200;2022-11-20T00:31:14;22.10;;;4.97;;
49934;SDS011;39898;41.762;26.200;2022-11-20T00:33:42;25.60;;;4.80;;
49934;SDS011;39898;41.762;26.200;2022-11-20T00:36:10;33.50;;;5.43;;
49934;SDS011;39898;41.762;26.200;2022-11-20T00:38:39;27.77;;;5.68;;
49934;SDS011;39898;41.762;26.200;2022-11-20T00:41:07;29.58;;;4.80;;
49934;SDS011;39898;41.762;26.200;2022-11-20T00:43:36;32.85;;;5.93;;
49934;SDS011;39898;41.762;26.200;2022-11-20T00:46:07;27.45;;;5.63;;
49934;SDS011;39898;41.762;26.200;2022-11-20T00:48:37;22.48;;;4.88;;
49934;SDS011;39898;41.762;26.200;2022-11-20T00:51:04;29.75;;;6.55;;
49934;SDS011;39898;41.762;26.200;2022-11-20T00:53:31;28.20;;;5.18;;
49934;SDS011;39898;41.762;26.200;2022-11-20T00:56:02;32.05;;;4.93;;
49934;SDS011;39898;41.762;26.200;2022-11-20T00:58:34;24.42;;;4.43;;
49934;SDS011;39898;41.762;26.200;2022-11-20T01:01:11;21.67;;;4.57;;
49934;SDS011;39898;41.762;26.200;2022-11-20T01:03:47;19.05;;;4.85;;
49934;SDS011;39898;41.762;26.200;2022-11-20T01:08:44;19.42;;;4.53;;
49934;SDS011;39898;41.762;26.200;2022-11-20T01:11:22;21.05;;;4.63;;
49934;SDS011;39898;41.762;26.200;2022-11-20T01:14:01;27.92;;;4.90;;
49934;SDS011;39898;41.762;26.200;2022-11-20T01:16:30;31.52;;;5.47;;
49934;SDS011;39898;41.762;26.200;2022-11-20T01:19:00;26.65;;;5.60;;
49934;SDS011;39898;41.762;26.200;2022-11-20T01:21:32;33.00;;;4.75;;
49934;SDS011;39898;41.762;26.200;2022-11-20T01:24:01;34.85;;;5.15;;
49934;SDS011;39898;41.762;26.200;2022-11-20T01:26:30;24.73;;;4.53;;
49934;SDS011;39898;41.762;26.200;2022-11-20T01:28:58;17.45;;;3.97;;
49934;SDS011;39898;41.762;26.200;2022-11-20T01:33:54;28.60;;;5.30;;
49934;SDS011;39898;41.762;26.200;2022-11-20T01:36:23;45.28;;;5.97;;
49934;SDS011;39898;41.762;26.200;2022-11-20T01:38:52;26.95;;;4.90;;
49934;SDS011;39898;41.762;26.200;2022-11-20T01:41:21;29.33;;;5.15;;
49934;SDS011;39898;41.762;26.200;2022-11-20T01:44:09;22.35;;;4.07;;
49934;SDS011;39898;41.762;26.200;2022-11-20T01:46:38;23.92;;;4.45;;
49934;SDS011;39898;41.762;26.200;2022-11-20T01:51:50;37.50;;;4.85;;
49934;SDS011;39898;41.762;26.200;2022-11-20T01:54:20;24.67;;;4.20;;
49934;SDS011;39898;41.762;26.200;2022-11-20T01:56:51;25.98;;;4.07;;
49934;SDS011;39898;41.762;26.200;2022-11-20T01:59:23;36.67;;;5.25;;
49934;SDS011;39898;41.762;26.200;2022-11-20T02:01:52;28.95;;;4.78;;
49934;SDS011;39898;41.762;26.200;2022-11-20T02:04:19;23.73;;;4.45;;
49934;SDS011;39898;41.762;26.200;2022-11-20T02:06:48;31.83;;;5.45;;
49934;SDS011;39898;41.762;26.200;2022-11-20T02:09:19;30.80;;;4.53;;
49934;SDS011;39898;41.762;26.200;2022-11-20T02:11:46;24.20;;;4.65;;
49934;SDS011;39898;41.762;26.200;2022-11-20T02:14:13;31.77;;;5.43;;
49934;SDS011;39898;41.762;26.200;2022-11-20T02:16:43;22.27;;;4.95;;
49934;SDS011;39898;41.762;26.200;2022-11-20T02:22:07;20.80;;;4.35;;
49934;SDS011;39898;41.762;26.200;2022-11-20T02:24:40;27.92;;;4.40;;
49934;SDS011;39898;41.762;26.200;2022-11-20T02:27:12;31.50;;;4.53;;
49934;SDS011;39898;41.762;26.200;2022-11-20T02:29:54;31.15;;;5.15;;
49934;SDS011;39898;41.762;26.200;2022-11-20T02:32:26;32.13;;;6.40;;
49934;SDS011;39898;41.762;26.200;2022-11-20T02:34:54;25.60;;;3.80;;
49934;SDS011;39898;41.762;26.200;2022-11-20T02:37:22;23.20;;;4.67;;
49934;SDS011;39898;41.762;26.200;2022-11-20T02:39:50;26.17;;;4.53;;
49934;SDS011;39898;41.762;26.200;2022-11-20T02:42:18;25.58;;;4.57;;
49934;SDS011;39898;41.762;26.200;2022-11-20T02:44:45;35.97;;;5.00;;
49934;SDS011;39898;41.762;26.200;2022-11-20T02:47:12;29.58;;;5.18;;
49934;SDS011;39898;41.762;26.200;2022-11-20T02:49:38;20.58;;;4.53;;
49934;SDS011;39898;41.762;26.200;2022-11-20T02:52:05;35.50;;;4.20;;
49934;SDS011;39898;41.762;26.200;2022-11-20T02:54:33;29.88;;;5.18;;
49934;SDS011;39898;41.762;26.200;2022-11-20T02:57:00;22.27;;;3.85;;
49934;SDS011;39898;41.762;26.200;2022-11-20T02:59:26;32.90;;;4.65;;
49934;SDS011;39898;41.762;26.200;2022-11-20T03:01:53;23.20;;;5.05;;
49934;SDS011;39898;41.762;26.200;2022-11-20T03:04:20;23.45;;;3.70;;
49934;SDS011;39898;41.762;26.200;2022-11-20T03:06:47;26.30;;;3.95;;
49934;SDS011;39898;41.762;26.200;2022-11-20T03:09:13;35.10;;;5.43;;
49934;SDS011;39898;41.762;26.200;2022-11-20T03:11:40;20.55;;;3.97;;
49934;SDS011;39898;41.762;26.200;2022-11-20T03:14:07;29.50;;;5.30;;
49934;SDS011;39898;41.762;26.200;2022-11-20T03:16:34;25.33;;;5.97;;
49934;SDS011;39898;41.762;26.200;2022-11-20T03:19:00;35.45;;;5.40;;
49934;SDS011;39898;41.762;26.200;2022-11-20T03:21:27;33.88;;;5.32;;
49934;SDS011;39898;41.762;26.200;2022-11-20T03:23:54;36.30;;;5.13;;
49934;SDS011;39898;41.762;26.200;2022-11-20T03:26:22;31.38;;;4.70;;
49934;SDS011;39898;41.762;26.200;2022-11-20T03:28:52;24.60;;;4.40;;
49934;SDS011;39898;41.762;26.200;2022-11-20T03:31:22;26.23;;;4.85;;
49934;SDS011;39898;41.762;26.200;2022-11-20T03:33:51;22.80;;;4.80;;
49934;SDS011;39898;41.762;26.200;2022-11-20T03:36:19;27.23;;;4.68;;
49934;SDS011;39898;41.762;26.200;2022-11-20T03:38:48;23.20;;;4.32;;
49934;SDS011;39898;41.762;26.200;2022-11-20T03:41:16;21.05;;;4.85;;
49934;SDS011;39898;41.762;26.200;2022-11-20T03:43:48;28.67;;;4.70;;
49934;SDS011;39898;41.762;26.200;2022-11-20T03:46:20;24.88;;;5.03;;
49934;SDS011;39898;41.762;26.200;2022-11-20T03:48:47;29.33;;;4.38;;
49934;SDS011;39898;41.762;26.200;2022-11-20T03:51:18;22.33;;;4.63;;
49934;SDS011;39898;41.762;26.200;2022-11-20T03:53:47;23.20;;;4.28;;
49934;SDS011;39898;41.762;26.200;2022-11-20T03:58:43;22.63;;;4.00;;
49934;SDS011;39898;41.762;26.200;2022-11-20T04:01:11;23.88;;;4.20;;
49934;SDS011;39898;41.762;26.200;2022-11-20T04:03:42;26.05;;;3.97;;
49934;SDS011;39898;41.762;26.200;2022-11-20T04:08:47;26.77;;;5.13;;
49934;SDS011;39898;41.762;26.200;2022-11-20T04:11:22;25.25;;;4.47;;
49934;SDS011;39898;41.762;26.200;2022-11-20T04:13:52;25.58;;;5.53;;
49934;SDS011;39898;41.762;26.200;2022-11-20T04:16:20;28.30;;;5.30;;
49934;SDS011;39898;41.762;26.200;2022-11-20T04:18:51;29.30;;;5.35;;
49934;SDS011;39898;41.762;26.200;2022-11-20T04:21:21;29.52;;;4.97;;
49934;SDS011;39898;41.762;26.200;2022-11-20T04:23:49;35.05;;;5.22;;
49934;SDS011;39898;41.762;26.200;2022-11-20T04:26:17;31.52;;;4.88;;
49934;SDS011;39898;41.762;26.200;2022-11-20T04:28:44;24.77;;;5.07;;
49934;SDS011;39898;41.762;26.200;2022-11-20T04:31:14;25.88;;;6.15;;
49934;SDS011;39898;41.762;26.200;2022-11-20T04:33:43;27.77;;;5.32;;
49934;SDS011;39898;41.762;26.200;2022-11-20T04:36:11;33.40;;;4.93;;
49934;SDS011;39898;41.762;26.200;2022-11-20T04:38:40;24.42;;;4.60;;
49934;SDS011;39898;41.762;26.200;2022-11-20T04:41:07;32.10;;;5.13;;
49934;SDS011;39898;41.762;26.200;2022-11-20T04:43:38;32.67;;;5.63;;
49934;SDS011;39898;41.762;26.200;2022-11-20T04:46:05;28.98;;;5.93;;
49934;SDS011;39898;41.762;26.200;2022-11-20T04:48:32;38.63;;;6.38;;
49934;SDS011;39898;41.762;26.200;2022-11-20T04:51:02;26.65;;;5.10;;
49934;SDS011;39898;41.762;26.200;2022-11-20T04:53:30;29.73;;;6.68;;
49934;SDS011;39898;41.762;26.200;2022-11-20T04:56:00;23.13;;;4.75;;
49934;SDS011;39898;41.762;26.200;2022-11-20T04:58:29;26.35;;;4.55;;
49934;SDS011;39898;41.762;26.200;2022-11-20T05:01:02;20.70;;;5.13;;
49934;SDS011;39898;41.762;26.200;2022-11-20T05:03:30;24.13;;;4.32;;
49934;SDS011;39898;41.762;26.200;2022-11-20T05:06:01;23.50;;;4.57;;
49934;SDS011;39898;41.762;26.200;2022-11-20T05:08:29;35.08;;;5.70;;
49934;SDS011;39898;41.762;26.200;2022-11-20T05:11:04;30.60;;;6.78;;
49934;SDS011;39898;41.762;26.200;2022-11-20T05:13:32;24.33;;;4.75;;
49934;SDS011;39898;41.762;26.200;2022-11-20T05:16:09;27.08;;;5.15;;
49934;SDS011;39898;41.762;26.200;2022-11-20T05:18:38;37.15;;;4.72;;
49934;SDS011;39898;41.762;26.200;2022-11-20T05:21:05;30.35;;;5.00;;
49934;SDS011;39898;41.762;26.200;2022-11-20T05:23:33;28.27;;;5.15;;
49934;SDS011;39898;41.762;26.200;2022-11-20T05:26:00;36.55;;;5.07;;
49934;SDS011;39898;41.762;26.200;2022-11-20T05:28:28;23.95;;;4.50;;
49934;SDS011;39898;41.762;26.200;2022-11-20T05:33:22;34.13;;;5.30;;
49934;SDS011;39898;41.762;26.200;2022-11-20T05:35:49;30.60;;;5.47;;
49934;SDS011;39898;41.762;26.200;2022-11-20T05:38:16;27.33;;;4.30;;
49934;SDS011;39898;41.762;26.200;2022-11-20T05:40:43;32.22;;;4.95;;
49934;SDS011;39898;41.762;26.200;2022-11-20T05:43:09;31.77;;;4.53;;
49934;SDS011;39898;41.762;26.200;2022-11-20T05:45:36;21.63;;;4.22;;
49934;SDS011;39898;41.762;26.200;2022-11-20T05:48:03;31.65;;;5.93;;
49934;SDS011;39898;41.762;26.200;2022-11-20T05:50:29;32.60;;;6.50;;
49934;SDS011;39898;41.762;26.200;2022-11-20T05:52:59;31.52;;;5.72;;
49934;SDS011;39898;41.762;26.200;2022-11-20T05:55:27;31.00;;;5.43;;
49934;SDS011;39898;41.762;26.200;2022-11-20T05:57:54;30.55;;;5.13;;
49934;SDS011;39898;41.762;26.200;2022-11-20T06:00:21;27.20;;;6.10;;
49934;SDS011;39898;41.762;26.200;2022-11-20T06:02:48;35.90;;;11.20;;
49934;SDS011;39898;41.762;26.200;2022-11-20T06:05:15;47.73;;;8.97;;
49934;SDS011;39898;41.762;26.200;2022-11-20T06:07:42;28.42;;;7.82;;
49934;SDS011;39898;41.762;26.200;2022-11-20T06:10:09;39.03;;;6.82;;
49934;SDS011;39898;41.762;26.200;2022-11-20T06:12:36;43.27;;;5.57;;
49934;SDS011;39898;41.762;26.200;2022-11-20T06:15:04;36.97;;;6.80;;
49934;SDS011;39898;41.762;26.200;2022-11-20T06:17:31;31.13;;;5.25;;
49934;SDS011;39898;41.762;26.200;2022-11-20T06:19:58;36.40;;;5.75;;
49934;SDS011;39898;41.762;26.200;2022-11-20T06:22:25;28.10;;;5.65;;
49934;SDS011;39898;41.762;26.200;2022-11-20T06:24:52;26.42;;;4.93;;
49934;SDS011;39898;41.762;26.200;2022-11-20T06:27:18;39.97;;;5.97;;
49934;SDS011;39898;41.762;26.200;2022-11-20T06:29:45;38.85;;;9.70;;
49934;SDS011;39898;41.762;26.200;2022-11-20T06:32:12;33.17;;;7.97;;
49934;SDS011;39898;41.762;26.200;2022-11-20T06:34:38;24.10;;;6.95;;
49934;SDS011;39898;41.762;26.200;2022-11-20T06:37:05;24.98;;;5.97;;
49934;SDS011;39898;41.762;26.200;2022-11-20T06:39:32;20.05;;;4.60;;
49934;SDS011;39898;41.762;26.200;2022-11-20T06:41:58;28.48;;;5.40;;
49934;SDS011;39898;41.762;26.200;2022-11-20T06:44:25;32.75;;;5.97;;
49934;SDS011;39898;41.762;26.200;2022-11-20T06:46:52;32.22;;;6.32;;
49934;SDS011;39898;41.762;26.200;2022-11-20T06:49:19;25.20;;;6.20;;
49934;SDS011;39898;41.762;26.200;2022-11-20T06:51:46;33.03;;;6.28;;
49934;SDS011;39898;41.762;26.200;2022-11-20T06:54:13;34.33;;;5.88;;
49934;SDS011;39898;41.762;26.200;2022-11-20T06:56:40;31.52;;;5.85;;
49934;SDS011;39898;41.762;26.200;2022-11-20T06:59:07;31.67;;;4.97;;
49934;SDS011;39898;41.762;26.200;2022-11-20T07:01:34;34.88;;;5.30;;
49934;SDS011;39898;41.762;26.200;2022-11-20T07:04:01;34.85;;;5.60;;
49934;SDS011;39898;41.762;26.200;2022-11-20T07:06:29;26.90;;;5.25;;
49934;SDS011;39898;41.762;26.200;2022-11-20T07:08:56;34.00;;;5.35;;
49934;SDS011;39898;41.762;26.200;2022-11-20T07:11:23;42.28;;;6.90;;
49934;SDS011;39898;41.762;26.200;2022-11-20T07:13:50;31.85;;;6.15;;
49934;SDS011;39898;41.762;26.200;2022-11-20T07:16:17;34.65;;;5.40;;
49934;SDS011;39898;41.762;26.200;2022-11-20T07:18:43;34.25;;;6.18;;
49934;SDS011;39898;41.762;26.200;2022-11-20T07:21:15;35.05;;;4.80;;
49934;SDS011;39898;41.762;26.200;2022-11-20T07:23:42;35.28;;;8.63;;
49934;SDS011;39898;41.762;26.200;2022-11-20T07:26:09;48.45;;;10.05;;
49934;SDS011;39898;41.762;26.200;2022-11-20T07:28:38;36.45;;;6.85;;
49934;SDS011;39898;41.762;26.200;2022-11-20T07:31:05;34.28;;;7.53;;
49934;SDS011;39898;41.762;26.200;2022-11-20T07:33:39;23.17;;;4.65;;
49934;SDS011;39898;41.762;26.200;2022-11-20T07:36:06;35.42;;;6.97;;
49934;SDS011;39898;41.762;26.200;2022-11-20T07:38:33;37.78;;;6.03;;
49934;SDS011;39898;41.762;26.200;2022-11-20T07:41:00;26.88;;;5.57;;
49934;SDS011;39898;41.762;26.200;2022-11-20T07:43:27;31.00;;;7.90;;
49934;SDS011;39898;41.762;26.200;2022-11-20T07:45:58;39.92;;;8.60;;
49934;SDS011;39898;41.762;26.200;2022-11-20T07:48:25;49.47;;;6.43;;
49934;SDS011;39898;41.762;26.200;2022-11-20T07:50:56;33.33;;;6.78;;
49934;SDS011;39898;41.762;26.200;2022-11-20T07:53:23;30.15;;;6.60;;
49934;SDS011;39898;41.762;26.200;2022-11-20T07:55:50;43.90;;;6.82;;
49934;SDS011;39898;41.762;26.200;2022-11-20T07:58:19;37.45;;;7.35;;
49934;SDS011;39898;41.762;26.200;2022-11-20T08:00:46;38.00;;;6.00;;
49934;SDS011;39898;41.762;26.200;2022-11-20T08:03:13;33.40;;;6.97;;
49934;SDS011;39898;41.762;26.200;2022-11-20T08:05:40;54.80;;;8.05;;
49934;SDS011;39898;41.762;26.200;2022-11-20T08:08:07;29.20;;;6.25;;
49934;SDS011;39898;41.762;26.200;2022-11-20T08:10:34;47.40;;;7.68;;
49934;SDS011;39898;41.762;26.200;2022-11-20T08:13:01;31.05;;;6.85;;
49934;SDS011;39898;41.762;26.200;2022-11-20T08:15:49;41.25;;;8.02;;
49934;SDS011;39898;41.762;26.200;2022-11-20T08:18:17;38.35;;;7.10;;
49934;SDS011;39898;41.762;26.200;2022-11-20T08:21:03;32.53;;;6.68;;
49934;SDS011;39898;41.762;26.200;2022-11-20T08:23:30;41.90;;;6.90;;
49934;SDS011;39898;41.762;26.200;2022-11-20T08:25:57;46.60;;;8.05;;
49934;SDS011;39898;41.762;26.200;2022-11-20T08:28:24;48.55;;;7.38;;
49934;SDS011;39898;41.762;26.200;2022-11-20T08:30:51;40.63;;;9.43;;
49934;SDS011;39898;41.762;26.200;2022-11-20T08:33:24;39.20;;;7.63;;
49934;SDS011;39898;41.762;26.200;2022-11-20T08:35:51;37.47;;;7.97;;
49934;SDS011;39898;41.762;26.200;2022-11-20T08:38:20;51.75;;;6.97;;
49934;SDS011;39898;41.762;26.200;2022-11-20T08:40:47;31.08;;;7.10;;
49934;SDS011;39898;41.762;26.200;2022-11-20T08:43:33;45.55;;;6.85;;
49934;SDS011;39898;41.762;26.200;2022-11-20T08:46:00;39.90;;;6.45;;
49934;SDS011;39898;41.762;26.200;2022-11-20T08:48:27;42.13;;;7.07;;
49934;SDS011;39898;41.762;26.200;2022-11-20T08:50:57;50.33;;;8.35;;
49934;SDS011;39898;41.762;26.200;2022-11-20T08:53:24;46.70;;;7.50;;
49934;SDS011;39898;41.762;26.200;2022-11-20T08:55:51;51.42;;;8.43;;
49934;SDS011;39898;41.762;26.200;2022-11-20T08:58:19;52.47;;;7.28;;
49934;SDS011;39898;41.762;26.200;2022-11-20T09:00:45;41.53;;;7.60;;
49934;SDS011;39898;41.762;26.200;2022-11-20T09:03:13;43.83;;;6.45;;
49934;SDS011;39898;41.762;26.200;2022-11-20T09:05:40;41.85;;;5.88;;
49934;SDS011;39898;41.762;26.200;2022-11-20T09:08:07;48.72;;;8.80;;
49934;SDS011;39898;41.762;26.200;2022-11-20T09:10:33;38.80;;;6.22;;
49934;SDS011;39898;41.762;26.200;2022-11-20T09:13:00;61.65;;;10.82;;
49934;SDS011;39898;41.762;26.200;2022-11-20T09:15:27;48.92;;;9.23;;
49934;SDS011;39898;41.762;26.200;2022-11-20T09:17:55;48.65;;;8.18;;
49934;SDS011;39898;41.762;26.200;2022-11-20T09:20:24;38.83;;;7.25;;
49934;SDS011;39898;41.762;26.200;2022-11-20T09:25:19;45.63;;;8.63;;
49934;SDS011;39898;41.762;26.200;2022-11-20T09:27:45;45.88;;;7.13;;
49934;SDS011;39898;41.762;26.200;2022-11-20T09:30:13;56.80;;;7.90;;
49934;SDS011;39898;41.762;26.200;2022-11-20T09:32:44;48.42;;;8.70;;
49934;SDS011;39898;41.762;26.200;2022-11-20T09:35:11;43.47;;;7.30;;
49934;SDS011;39898;41.762;26.200;2022-11-20T09:37:38;50.28;;;9.35;;
49934;SDS011;39898;41.762;26.200;2022-11-20T09:40:05;50.20;;;9.75;;
49934;SDS011;39898;41.762;26.200;2022-11-20T09:51:09;53.80;;;9.93;;
49934;SDS011;39898;41.762;26.200;2022-11-20T09:56:28;42.60;;;7.10;;
49934;SDS011;39898;41.762;26.200;2022-11-20T09:58:57;76.05;;;9.02;;
49934;SDS011;39898;41.762;26.200;2022-11-20T10:01:35;34.33;;;5.95;;
49934;SDS011;39898;41.762;26.200;2022-11-20T10:04:06;41.35;;;6.20;;
49934;SDS011;39898;41.762;26.200;2022-11-20T10:09:51;52.17;;;6.05;;
49934;SDS011;39898;41.762;26.200;2022-11-20T10:14:52;40.03;;;6.47;;
49934;SDS011;39898;41.762;26.200;2022-11-20T10:31:46;39.08;;;6.38;;
49934;SDS011;39898;41.762;26.200;2022-11-20T10:36:57;45.90;;;6.63;;
49934;SDS011;39898;41.762;26.200;2022-11-20T10:42:11;34.50;;;7.13;;
49934;SDS011;39898;41.762;26.200;2022-11-20T10:44:47;53.83;;;10.32;;
49934;SDS011;39898;41.762;26.200;2022-11-20T10:47:31;36.97;;;7.20;;
49934;SDS011;39898;41.762;26.200;2022-11-20T10:50:01;48.30;;;10.82;;
49934;SDS011;39898;41.762;26.200;2022-11-20T10:58:14;52.38;;;13.63;;
49934;SDS011;39898;41.762;26.200;2022-11-20T11:00:48;43.03;;;9.80;;
49934;SDS011;39898;41.762;26.200;2022-11-20T11:03:23;57.55;;;12.90;;
49934;SDS011;39898;41.762;26.200;2022-11-20T11:05:59;52.42;;;7.15;;
49934;SDS011;39898;41.762;26.200;2022-11-20T11:08:46;44.85;;;5.75;;
49934;SDS011;39898;41.762;26.200;2022-11-20T11:13:51;31.55;;;6.18;;
49934;SDS011;39898;41.762;26.200;2022-11-20T11:16:24;33.17;;;6.20;;
49934;SDS011;39898;41.762;26.200;2022-11-20T11:19:03;45.03;;;7.22;;
49934;SDS011;39898;41.762;26.200;2022-11-20T11:21:37;48.90;;;7.38;;
49934;SDS011;39898;41.762;26.200;2022-11-20T11:24:15;49.28;;;6.43;;
49934;SDS011;39898;41.762;26.200;2022-11-20T11:27:13;67.07;;;12.65;;
49934;SDS011;39898;41.762;26.200;2022-11-20T11:29:44;46.33;;;7.03;;
49934;SDS011;39898;41.762;26.200;2022-11-20T11:32:20;39.28;;;5.90;;
49934;SDS011;39898;41.762;26.200;2022-11-20T11:37:32;41.35;;;6.07;;
49934;SDS011;39898;41.762;26.200;2022-11-20T11:40:01;48.05;;;7.22;;
49934;SDS011;39898;41.762;26.200;2022-11-20T11:42:51;44.58;;;6.22;;
49934;SDS011;39898;41.762;26.200;2022-11-20T11:45:21;37.00;;;6.68;;
49934;SDS011;39898;41.762;26.200;2022-11-20T11:47:48;35.05;;;5.70;;
49934;SDS011;39898;41.762;26.200;2022-11-20T11:50:19;52.10;;;7.22;;
49934;SDS011;39898;41.762;26.200;2022-11-20T11:55:29;41.65;;;7.95;;
49934;SDS011;39898;41.762;26.200;2022-11-20T12:00:26;51.65;;;7.25;;
49934;SDS011;39898;41.762;26.200;2022-11-20T12:02:56;48.80;;;7.13;;
49934;SDS011;39898;41.762;26.200;2022-11-20T12:11:16;47.70;;;7.28;;
49934;SDS011;39898;41.762;26.200;2022-11-20T12:13:53;52.45;;;7.50;;
49934;SDS011;39898;41.762;26.200;2022-11-20T12:16:28;38.97;;;6.37;;
49934;SDS011;39898;41.762;26.200;2022-11-20T12:19:01;63.63;;;7.45;;
49934;SDS011;39898;41.762;26.200;2022-11-20T12:21:40;69.63;;;8.52;;
49934;SDS011;39898;41.762;26.200;2022-11-20T12:27:15;61.30;;;7.80;;
49934;SDS011;39898;41.762;26.200;2022-11-20T12:40:35;68.55;;;8.57;;
49934;SDS011;39898;41.762;26.200;2022-11-20T12:43:24;65.75;;;8.77;;
49934;SDS011;39898;41.762;26.200;2022-11-20T12:57:01;59.90;;;9.02;;
